Eisenstein, Wisconsin
Current Conditions -  °F | °C
As of 3:40 PM on Thursday 18 Dec 2014 (Local Time) from KPBH Reporting Station
Overcast Overcast  
Wind Chill: 21°   Ceiling: 1200
Heat Index: 21°   Visibility: 10mi
Dew Point: 16°   Wind: 0mph
Humidity: 82%   Direction: NA
Pressure: 30.22"   Gusts: NA
Location:  45.9599°N, 90.2362°W
Report Text: KPBH 182140Z AUTO 00000KT 10SM OVC012 M06/M09 A3022 RMK AO2 T10601087
Loading
Personal Weather Stations






























Interactive Weather Map New forecast layout! Learn more

10-Day Weather Forecast

Advertisements
Track Severe Weather on mobile